createdAt,value
2022-10-17T00:01:07.356Z,10.80
2022-10-17T00:03:37.059Z,11.70
2022-10-17T00:06:09.491Z,11.50
2022-10-17T00:08:37.920Z,10.43
2022-10-17T00:11:08.399Z,10.43
2022-10-17T00:13:36.835Z,10.13
2022-10-17T00:16:05.624Z,10.20
2022-10-17T00:18:33.838Z,10.23
2022-10-17T00:21:02.150Z,12.07
2022-10-17T00:23:31.735Z,11.67
2022-10-17T00:26:00.834Z,11.93
2022-10-17T00:28:29.252Z,10.63
2022-10-17T00:30:58.150Z,11.33
2022-10-17T00:33:26.583Z,11.73
2022-10-17T00:36:04.566Z,11.63
2022-10-17T00:38:34.430Z,11.50
2022-10-17T00:41:02.766Z,10.40
2022-10-17T00:43:31.221Z,10.17
2022-10-17T00:45:59.406Z,11.20
2022-10-17T00:48:27.867Z,10.13
2022-10-17T00:50:56.550Z,10.57
2022-10-17T00:53:25.131Z,9.87
2022-10-17T00:55:55.485Z,10.30
2022-10-17T00:58:23.960Z,10.00
2022-10-17T01:00:52.107Z,9.47
2022-10-17T01:03:20.528Z,10.53
2022-10-17T01:05:49.056Z,9.90
2022-10-17T01:08:17.671Z,11.47
2022-10-17T01:10:56.397Z,10.53
2022-10-17T01:13:31.982Z,12.50
2022-10-17T01:16:10.251Z,10.13
2022-10-17T01:18:52.637Z,9.83
2022-10-17T01:21:43.250Z,10.33
2022-10-17T01:24:49.055Z,9.73
2022-10-17T01:27:50.476Z,10.43
2022-10-17T01:30:51.245Z,9.63
2022-10-17T01:33:27.639Z,11.50
2022-10-17T01:36:03.362Z,9.97
2022-10-17T01:38:39.339Z,9.87
2022-10-17T01:41:14.779Z,9.80
2022-10-17T01:43:48.241Z,9.57
2022-10-17T01:46:23.081Z,9.67
2022-10-17T01:48:55.040Z,10.57
2022-10-17T01:51:26.316Z,9.37
2022-10-17T01:53:59.554Z,10.20
2022-10-17T01:56:31.197Z,8.37
2022-10-17T01:59:04.111Z,9.30
2022-10-17T02:01:33.066Z,9.23
2022-10-17T02:04:03.890Z,10.03
2022-10-17T02:06:36.432Z,9.50
2022-10-17T02:09:19.186Z,10.43
2022-10-17T02:11:56.501Z,9.53
2022-10-17T02:14:34.706Z,9.37
2022-10-17T02:17:12.460Z,9.53
2022-10-17T02:19:51.545Z,9.07
2022-10-17T02:22:28.828Z,10.53
2022-10-17T02:25:04.615Z,10.17
2022-10-17T02:27:39.831Z,10.10
2022-10-17T02:30:13.069Z,9.77
2022-10-17T02:32:50.169Z,10.40
2022-10-17T02:35:22.612Z,11.10
2022-10-17T02:37:52.997Z,11.43
2022-10-17T02:40:23.719Z,11.03
2022-10-17T02:42:54.369Z,11.20
2022-10-17T02:45:25.332Z,11.23
2022-10-17T02:48:00.208Z,11.70
2022-10-17T02:50:37.899Z,11.60
2022-10-17T02:53:10.571Z,11.83
2022-10-17T02:55:45.342Z,12.33
2022-10-17T02:58:19.860Z,12.23
2022-10-17T03:00:48.427Z,11.53
2022-10-17T03:03:21.397Z,11.63
2022-10-17T03:05:52.156Z,11.70
2022-10-17T03:08:20.521Z,11.60
2022-10-17T03:10:48.783Z,12.10
2022-10-17T03:13:17.317Z,11.67
2022-10-17T03:15:45.343Z,12.57
2022-10-17T03:18:13.761Z,11.30
2022-10-17T03:20:42.086Z,11.43
2022-10-17T03:23:11.838Z,12.20
2022-10-17T03:25:40.344Z,11.00
2022-10-17T03:28:09.096Z,11.97
2022-10-17T03:30:40.106Z,11.30
2022-10-17T03:33:08.255Z,11.43
2022-10-17T03:35:39.957Z,11.23
2022-10-17T03:38:08.069Z,11.53
2022-10-17T03:40:37.591Z,11.00
2022-10-17T03:43:05.933Z,11.80
2022-10-17T03:45:34.383Z,11.27
2022-10-17T03:48:02.863Z,11.03
2022-10-17T03:50:31.177Z,11.13
2022-10-17T03:52:59.567Z,10.87
2022-10-17T03:55:28.269Z,10.13
2022-10-17T03:57:57.935Z,10.37
2022-10-17T04:00:26.277Z,11.53
2022-10-17T04:02:54.801Z,12.10
2022-10-17T04:05:23.112Z,11.33
2022-10-17T04:07:51.557Z,10.93
2022-10-17T04:10:19.963Z,11.83
2022-10-17T04:12:48.004Z,10.30
2022-10-17T04:15:17.585Z,11.10
2022-10-17T04:17:48.487Z,11.13
2022-10-17T04:20:16.993Z,10.80
2022-10-17T04:22:45.328Z,12.10
2022-10-17T04:25:13.647Z,11.77
2022-10-17T04:27:42.036Z,14.33
2022-10-17T04:30:10.635Z,11.07
2022-10-17T04:32:40.268Z,10.97
2022-10-17T04:35:10.160Z,10.40
2022-10-17T04:37:50.284Z,12.07
2022-10-17T04:40:18.664Z,11.07
2022-10-17T04:42:47.059Z,12.17
2022-10-17T04:45:15.598Z,11.37
2022-10-17T04:47:45.139Z,11.93
2022-10-17T04:50:13.515Z,11.57
2022-10-17T04:52:41.857Z,12.67
2022-10-17T04:55:10.380Z,11.73
2022-10-17T04:57:38.400Z,12.20
2022-10-17T05:02:42.812Z,11.73
2022-10-17T05:05:12.351Z,12.20
2022-10-17T05:07:41.757Z,13.40
2022-10-17T05:10:10.517Z,13.13
2022-10-17T05:12:38.816Z,19.13
2022-10-17T05:15:08.295Z,13.37
2022-10-17T05:17:36.621Z,14.03
2022-10-17T05:20:05.123Z,13.10
2022-10-17T05:22:38.233Z,13.50
2022-10-17T05:25:09.837Z,13.37
2022-10-17T05:27:38.163Z,15.23
2022-10-17T05:30:07.508Z,15.40
2022-10-17T05:32:36.653Z,14.27
2022-10-17T05:35:06.129Z,14.63
2022-10-17T05:37:35.829Z,14.90
2022-10-17T05:40:04.210Z,13.70
2022-10-17T05:42:32.905Z,14.73
2022-10-17T05:45:01.595Z,14.93
2022-10-17T05:47:29.809Z,17.73
2022-10-17T05:49:58.337Z,16.13
2022-10-17T05:52:27.294Z,16.40
2022-10-17T05:54:56.960Z,17.15
2022-10-17T05:57:26.801Z,17.73
2022-10-17T05:59:54.855Z,16.42
2022-10-17T06:02:23.339Z,19.02
2022-10-17T06:04:51.771Z,17.23
2022-10-17T06:07:20.180Z,16.92
2022-10-17T06:09:48.514Z,18.10
2022-10-17T06:12:17.954Z,18.15
2022-10-17T06:14:46.245Z,18.05
2022-10-17T06:17:16.259Z,16.75
2022-10-17T06:19:45.290Z,19.88
2022-10-17T06:22:13.521Z,18.52
2022-10-17T06:24:42.351Z,20.25
2022-10-17T06:27:13.152Z,17.20
2022-10-17T06:29:42.572Z,19.83
2022-10-17T06:32:14.128Z,19.80
2022-10-17T06:34:43.685Z,19.02
2022-10-17T06:37:12.217Z,19.08
2022-10-17T06:39:41.429Z,18.58
2022-10-17T06:42:09.596Z,16.50
2022-10-17T06:44:37.660Z,17.95
2022-10-17T06:47:07.058Z,17.63
2022-10-17T06:49:35.433Z,18.20
2022-10-17T06:52:04.164Z,15.35
2022-10-17T06:54:33.496Z,16.48
2022-10-17T06:57:01.944Z,17.83
2022-10-17T06:59:30.289Z,16.77
2022-10-17T07:01:58.342Z,15.02
2022-10-17T07:04:28.051Z,17.48
2022-10-17T07:06:56.135Z,17.95
2022-10-17T07:09:25.022Z,18.55
2022-10-17T07:11:53.416Z,16.08
2022-10-17T07:14:21.671Z,17.02
2022-10-17T07:16:50.068Z,16.48
2022-10-17T07:19:18.349Z,17.10
2022-10-17T07:21:49.089Z,14.60
2022-10-17T07:24:17.352Z,15.93
2022-10-17T07:26:45.782Z,18.08
2022-10-17T07:29:14.114Z,16.58
2022-10-17T07:31:42.441Z,16.10
2022-10-17T07:34:10.436Z,16.65
2022-10-17T07:36:38.502Z,16.40
2022-10-17T07:39:07.945Z,17.88
2022-10-17T07:41:36.028Z,14.82
2022-10-17T07:44:04.138Z,18.15
2022-10-17T07:46:32.208Z,16.48
2022-10-17T07:49:00.532Z,17.88
2022-10-17T07:51:28.590Z,16.88
2022-10-17T07:53:56.772Z,17.40
2022-10-17T07:56:26.304Z,17.83
2022-10-17T07:58:54.740Z,16.40
2022-10-17T08:01:22.880Z,17.58
2022-10-17T08:03:52.027Z,17.85
2022-10-17T08:06:20.343Z,18.58
2022-10-17T08:08:48.380Z,16.50
2022-10-17T08:11:16.686Z,19.23
2022-10-17T08:13:46.098Z,17.13
2022-10-17T08:16:14.637Z,16.38
2022-10-17T08:18:44.449Z,19.25
2022-10-17T08:21:14.381Z,18.60
2022-10-17T08:23:42.747Z,18.80
2022-10-17T08:26:13.569Z,19.00
2022-10-17T08:28:42.321Z,19.67
2022-10-17T08:31:13.855Z,20.05
2022-10-17T08:33:42.438Z,17.52
2022-10-17T08:36:11.011Z,17.55
2022-10-17T08:38:43.187Z,17.98
2022-10-17T08:41:21.141Z,15.50
2022-10-17T08:44:04.902Z,18.05
2022-10-17T08:46:38.769Z,17.25
2022-10-17T08:49:14.080Z,17.42
2022-10-17T08:51:50.600Z,15.52
2022-10-17T08:54:21.677Z,17.73
2022-10-17T08:56:51.405Z,16.48
2022-10-17T08:59:22.696Z,18.35
2022-10-17T09:02:00.344Z,17.00
2022-10-17T09:04:56.373Z,18.40
2022-10-17T09:07:30.910Z,19.08
2022-10-17T09:10:06.148Z,21.77
2022-10-17T09:12:42.841Z,23.13
2022-10-17T09:15:35.504Z,23.27
2022-10-17T09:18:13.409Z,26.98
2022-10-17T09:20:46.971Z,26.65
2022-10-17T09:23:18.933Z,26.10
2022-10-17T09:25:50.999Z,28.35
2022-10-17T09:28:24.711Z,25.10
2022-10-17T09:30:58.121Z,29.45
2022-10-17T09:33:42.381Z,28.27
2022-10-17T09:36:21.404Z,28.75
2022-10-17T09:38:51.749Z,29.58
2022-10-17T09:41:44.222Z,27.38
2022-10-17T09:44:18.507Z,25.00
2022-10-17T09:47:03.021Z,21.88
2022-10-17T09:49:34.680Z,24.02
2022-10-17T09:52:05.200Z,23.90
2022-10-17T09:54:42.424Z,22.02
2022-10-17T09:57:12.155Z,22.23
2022-10-17T09:59:43.096Z,20.73
2022-10-17T10:02:19.141Z,22.10
2022-10-17T10:05:06.756Z,24.48
2022-10-17T10:07:37.436Z,23.52
2022-10-17T10:10:07.884Z,20.67
2022-10-17T10:12:37.947Z,20.88
2022-10-17T10:15:33.450Z,18.63
2022-10-17T10:18:01.935Z,19.63
2022-10-17T10:20:34.813Z,19.92
2022-10-17T10:23:14.314Z,18.30
2022-10-17T10:25:54.591Z,21.55
2022-10-17T10:28:27.680Z,23.10
2022-10-17T10:30:57.381Z,19.08
2022-10-17T10:33:29.392Z,22.08
2022-10-17T10:36:01.901Z,20.92
2022-10-17T10:38:31.314Z,20.30
2022-10-17T10:41:05.009Z,20.25
2022-10-17T10:43:38.464Z,19.25
2022-10-17T10:46:17.292Z,19.55
2022-10-17T10:48:52.956Z,18.17
2022-10-17T10:51:28.222Z,17.80
2022-10-17T10:54:03.501Z,15.02
2022-10-17T10:56:39.429Z,16.95
2022-10-17T10:59:14.939Z,18.13
2022-10-17T11:01:49.272Z,19.20
2022-10-17T11:04:28.421Z,17.05
2022-10-17T11:07:08.554Z,19.85
2022-10-17T11:09:46.946Z,19.92
2022-10-17T11:12:21.875Z,19.75
2022-10-17T11:14:57.215Z,18.38
2022-10-17T11:17:33.785Z,18.25
2022-10-17T11:20:12.401Z,18.95
2022-10-17T11:22:45.448Z,20.63
2022-10-17T11:25:29.209Z,20.33
2022-10-17T11:27:59.806Z,22.30
2022-10-17T11:30:41.388Z,18.52
2022-10-17T11:33:13.333Z,16.05
2022-10-17T11:35:45.656Z,18.88
2022-10-17T11:38:19.579Z,18.75
2022-10-17T11:40:51.428Z,18.92
2022-10-17T11:43:22.610Z,18.67
2022-10-17T11:45:56.599Z,18.10
2022-10-17T11:48:29.772Z,19.15
2022-10-17T11:54:03.529Z,16.75
2022-10-17T11:56:42.703Z,18.13
2022-10-17T11:59:49.640Z,17.83
2022-10-17T12:02:26.967Z,18.67
2022-10-17T12:05:01.815Z,16.00
2022-10-17T12:07:39.498Z,16.65
2022-10-17T12:10:31.907Z,17.42
2022-10-17T12:13:41.185Z,18.77
2022-10-17T12:16:43.817Z,15.73
2022-10-17T12:19:43.216Z,16.25
2022-10-17T12:22:21.789Z,17.58
2022-10-17T12:24:58.602Z,17.02
2022-10-17T12:27:47.297Z,18.23
2022-10-17T12:30:23.867Z,18.30
2022-10-17T12:33:07.989Z,17.20
2022-10-17T12:35:38.044Z,19.13
2022-10-17T12:38:29.948Z,17.13
2022-10-17T12:41:03.360Z,18.80
2022-10-17T12:43:52.734Z,16.92
2022-10-17T12:46:49.768Z,20.65
2022-10-17T12:49:46.500Z,20.08
2022-10-17T12:52:27.295Z,18.27
2022-10-17T12:55:17.279Z,19.70
2022-10-17T12:58:00.118Z,18.35
2022-10-17T13:00:54.626Z,20.15
2022-10-17T13:03:34.580Z,17.25
2022-10-17T13:06:05.990Z,20.77
2022-10-17T13:08:37.299Z,19.17
2022-10-17T13:11:06.692Z,20.45
2022-10-17T13:13:42.393Z,19.77
2022-10-17T13:16:29.558Z,18.05
2022-10-17T13:18:58.170Z,18.85
2022-10-17T13:21:26.908Z,18.75
2022-10-17T13:23:55.289Z,20.25
2022-10-17T13:26:25.130Z,18.20
2022-10-17T13:29:04.105Z,22.00
2022-10-17T13:31:35.704Z,18.45
2022-10-17T13:34:06.095Z,20.90
2022-10-17T13:36:37.012Z,19.27
2022-10-17T13:39:12.369Z,19.25
2022-10-17T13:41:42.703Z,20.90
2022-10-17T13:44:17.170Z,19.83
2022-10-17T13:46:47.455Z,20.98
2022-10-17T13:49:25.938Z,20.08
2022-10-17T13:51:57.813Z,22.80
2022-10-17T13:54:38.318Z,22.38
2022-10-17T13:57:07.595Z,21.58
2022-10-17T13:59:40.653Z,23.63
2022-10-17T14:02:15.915Z,21.63
2022-10-17T14:05:15.086Z,19.88
2022-10-17T14:08:05.665Z,18.73
2022-10-17T14:10:31.053Z,21.05
2022-10-17T14:12:59.995Z,21.42
2022-10-17T14:15:30.975Z,20.30
2022-10-17T14:18:06.750Z,20.33
2022-10-17T14:23:35.120Z,18.90
2022-10-17T14:26:15.458Z,17.50
2022-10-17T14:28:46.238Z,18.92
2022-10-17T14:31:22.057Z,18.70
2022-10-17T14:33:52.504Z,20.95
2022-10-17T14:36:21.902Z,16.45
2022-10-17T14:38:52.944Z,21.88
2022-10-17T14:44:21.911Z,17.88
2022-10-17T14:46:53.941Z,16.70
2022-10-17T14:49:32.539Z,19.67
2022-10-17T14:52:28.751Z,18.33
2022-10-17T14:54:58.873Z,17.38
2022-10-17T14:57:42.832Z,19.00
2022-10-17T15:00:16.117Z,18.88
2022-10-17T15:02:45.059Z,17.17
2022-10-17T15:05:15.449Z,18.67
2022-10-17T15:07:44.341Z,20.27
2022-10-17T15:10:26.076Z,17.73
2022-10-17T15:12:59.145Z,17.63
2022-10-17T15:15:33.500Z,18.00
2022-10-17T15:18:02.099Z,18.05
2022-10-17T15:20:32.273Z,21.60
2022-10-17T15:23:02.068Z,18.60
2022-10-17T15:25:31.745Z,18.98
2022-10-17T15:28:00.183Z,18.08
2022-10-17T15:30:29.973Z,18.95
2022-10-17T15:32:58.367Z,19.58
2022-10-17T15:35:27.309Z,19.65
2022-10-17T15:37:56.964Z,19.02
2022-10-17T15:40:28.900Z,16.52
2022-10-17T15:42:57.600Z,15.55
2022-10-17T15:45:26.008Z,15.57
2022-10-17T15:47:56.524Z,17.15
2022-10-17T15:50:24.628Z,17.73
2022-10-17T15:52:52.985Z,17.15
2022-10-17T15:55:22.572Z,20.20
2022-10-17T15:57:51.065Z,16.50
2022-10-17T16:00:25.553Z,16.48
2022-10-17T16:02:54.032Z,17.58
2022-10-17T16:05:25.567Z,17.25
2022-10-17T16:07:54.737Z,19.13
2022-10-17T16:10:25.538Z,17.48
2022-10-17T16:12:54.269Z,17.20
2022-10-17T16:15:25.392Z,18.38
2022-10-17T16:17:54.989Z,19.85
2022-10-17T16:20:23.814Z,19.13
2022-10-17T16:23:00.971Z,19.23
2022-10-17T16:25:32.280Z,19.50
2022-10-17T16:28:01.800Z,21.60
2022-10-17T16:30:31.749Z,17.98
2022-10-17T16:33:00.090Z,17.70
2022-10-17T16:35:36.781Z,20.20
2022-10-17T16:38:06.241Z,18.20
2022-10-17T16:40:36.114Z,18.08
2022-10-17T16:43:04.159Z,17.88
2022-10-17T16:45:32.622Z,17.45
2022-10-17T16:48:01.183Z,18.85
2022-10-17T16:50:31.216Z,19.15
2022-10-17T16:52:59.552Z,18.83
2022-10-17T16:55:27.590Z,19.27
2022-10-17T16:57:57.114Z,21.70
2022-10-17T17:00:25.144Z,19.08
2022-10-17T17:02:53.324Z,20.08
2022-10-17T17:05:21.693Z,20.13
2022-10-17T17:07:49.841Z,20.02
2022-10-17T17:10:17.989Z,20.45
2022-10-17T17:12:46.071Z,21.52
2022-10-17T17:15:15.692Z,20.48
2022-10-17T17:17:50.544Z,19.90
2022-10-17T17:20:20.461Z,20.48
2022-10-17T17:22:50.785Z,20.63
2022-10-17T17:25:18.948Z,21.15
2022-10-17T17:27:48.113Z,20.13
2022-10-17T17:30:17.691Z,20.63
2022-10-17T17:32:46.066Z,20.40
2022-10-17T17:35:14.481Z,20.90
2022-10-17T17:37:42.550Z,19.73
2022-10-17T17:40:11.671Z,22.15
2022-10-17T17:42:40.031Z,21.70
2022-10-17T17:45:09.072Z,22.90
2022-10-17T17:47:38.461Z,22.35
2022-10-17T17:50:07.328Z,23.55
2022-10-17T17:52:35.641Z,24.90
2022-10-17T17:55:03.965Z,22.30
2022-10-17T17:57:31.994Z,23.48
2022-10-17T18:00:00.366Z,20.52
2022-10-17T18:02:29.034Z,21.60
2022-10-17T18:04:59.128Z,22.45
2022-10-17T18:07:27.645Z,22.95
2022-10-17T18:09:57.058Z,23.00
2022-10-17T18:12:25.435Z,24.27
2022-10-17T18:14:53.522Z,21.85
2022-10-17T18:17:21.893Z,21.63
2022-10-17T18:19:50.050Z,21.08
2022-10-17T18:22:19.597Z,24.38
2022-10-17T18:24:48.009Z,24.67
2022-10-17T18:27:16.404Z,24.17
2022-10-17T18:29:45.769Z,26.33
2022-10-17T18:32:14.114Z,23.85
2022-10-17T18:34:42.528Z,26.65
2022-10-17T18:37:12.017Z,25.90
2022-10-17T18:39:41.491Z,25.20
2022-10-17T18:42:11.310Z,25.85
2022-10-17T18:44:39.401Z,23.65
2022-10-17T18:47:07.751Z,24.75
2022-10-17T18:49:36.531Z,26.15
2022-10-17T18:52:04.990Z,25.77
2022-10-17T18:54:34.790Z,24.95
2022-10-17T18:57:04.872Z,26.00
2022-10-17T18:59:33.384Z,24.55
2022-10-17T19:02:02.122Z,24.60
2022-10-17T19:04:30.362Z,24.08
2022-10-17T19:06:58.862Z,22.73
2022-10-17T19:09:27.217Z,23.65
2022-10-17T19:11:56.566Z,21.80
2022-10-17T19:14:28.644Z,21.73
2022-10-17T19:16:57.180Z,22.50
2022-10-17T19:19:26.794Z,22.98
2022-10-17T19:21:55.322Z,22.80
2022-10-17T19:24:25.077Z,24.15
2022-10-17T19:26:55.562Z,23.73
2022-10-17T19:29:26.660Z,23.02
2022-10-17T19:34:24.538Z,22.77
2022-10-17T19:36:52.812Z,21.73
2022-10-17T19:39:25.090Z,20.42
2022-10-17T19:41:53.313Z,22.02
2022-10-17T19:44:21.674Z,21.13
2022-10-17T19:46:52.134Z,25.90
2022-10-17T19:49:20.447Z,22.20
2022-10-17T19:51:48.856Z,23.13
2022-10-17T19:54:18.622Z,24.38
2022-10-17T19:56:47.052Z,23.23
2022-10-17T19:59:16.821Z,24.38
2022-10-17T20:01:45.504Z,24.08
2022-10-17T20:04:15.118Z,23.48
2022-10-17T20:06:43.210Z,23.67
2022-10-17T20:09:16.664Z,22.02
2022-10-17T20:11:46.192Z,21.83
2022-10-17T20:14:14.718Z,21.75
2022-10-17T20:16:44.762Z,22.10
2022-10-17T20:19:15.043Z,24.27
2022-10-17T20:21:44.633Z,25.42
2022-10-17T20:24:15.361Z,25.25
2022-10-17T20:26:44.252Z,25.83
2022-10-17T20:29:15.287Z,24.63
2022-10-17T20:31:44.836Z,24.90
2022-10-17T20:34:16.879Z,24.98
2022-10-17T20:36:45.194Z,24.85
2022-10-17T20:39:15.061Z,26.92
2022-10-17T20:41:43.895Z,27.75
2022-10-17T20:44:12.475Z,26.58
2022-10-17T20:46:52.735Z,28.60
2022-10-17T20:49:30.004Z,26.10
2022-10-17T20:51:58.460Z,26.23
2022-10-17T20:54:28.331Z,27.60
2022-10-17T20:56:59.770Z,27.33
2022-10-17T20:59:30.765Z,26.95
2022-10-17T21:01:59.340Z,25.40
2022-10-17T21:04:46.729Z,26.52
2022-10-17T21:07:15.776Z,25.25
2022-10-17T21:09:43.882Z,23.67
2022-10-17T21:12:18.084Z,24.00
2022-10-17T21:14:54.213Z,24.67
2022-10-17T21:17:22.287Z,24.50
2022-10-17T21:19:51.852Z,23.27
2022-10-17T21:22:20.067Z,25.67
2022-10-17T21:24:48.425Z,24.58
2022-10-17T21:27:18.917Z,25.13
2022-10-17T21:29:47.463Z,23.20
2022-10-17T21:32:31.836Z,23.27
2022-10-17T21:35:05.771Z,23.58
2022-10-17T21:37:34.161Z,25.50
2022-10-17T21:40:02.313Z,21.50
2022-10-17T21:42:30.892Z,23.55
2022-10-17T21:44:59.458Z,24.00
2022-10-17T21:47:29.637Z,22.85
2022-10-17T21:49:57.693Z,26.85
2022-10-17T21:52:27.124Z,22.27
2022-10-17T21:54:55.462Z,22.13
2022-10-17T21:57:23.486Z,23.27
2022-10-17T21:59:51.810Z,22.92
2022-10-17T22:02:20.136Z,22.08
2022-10-17T22:04:48.460Z,23.33
2022-10-17T22:07:16.994Z,21.13
2022-10-17T22:09:46.396Z,21.58
2022-10-17T22:12:14.770Z,22.75
2022-10-17T22:14:43.273Z,24.15
2022-10-17T22:17:11.304Z,23.48
2022-10-17T22:19:39.352Z,23.63
2022-10-17T22:22:07.535Z,23.85
2022-10-17T22:24:35.989Z,25.85
2022-10-17T22:27:09.765Z,21.40
2022-10-17T22:29:39.631Z,20.95
2022-10-17T22:32:07.656Z,23.92
2022-10-17T22:34:36.010Z,21.17
2022-10-17T22:37:04.321Z,20.02
2022-10-17T22:39:32.376Z,20.05
2022-10-17T22:42:00.729Z,19.70
2022-10-17T22:44:30.188Z,20.65
2022-10-17T22:46:58.198Z,21.15
2022-10-17T22:49:26.708Z,22.13
2022-10-17T22:51:54.725Z,23.95
2022-10-17T22:54:23.108Z,22.77
2022-10-17T22:56:52.029Z,20.20
2022-10-17T22:59:20.360Z,22.33
2022-10-17T23:01:49.967Z,24.20
2022-10-17T23:04:18.490Z,23.83
2022-10-17T23:06:46.548Z,23.00
2022-10-17T23:09:15.006Z,22.38
2022-10-17T23:11:43.534Z,25.80
2022-10-17T23:14:11.834Z,23.52
2022-10-17T23:16:40.176Z,22.05
2022-10-17T23:19:09.560Z,23.45
2022-10-17T23:21:38.079Z,21.50
2022-10-17T23:24:06.622Z,20.33
2022-10-17T23:26:34.633Z,18.58
2022-10-17T23:29:02.732Z,20.67
2022-10-17T23:31:31.124Z,20.92
2022-10-17T23:34:00.038Z,22.30
2022-10-17T23:36:29.471Z,22.70
2022-10-17T23:38:58.614Z,20.50
2022-10-17T23:41:27.106Z,21.02
2022-10-17T23:43:55.495Z,22.65
2022-10-17T23:46:23.593Z,20.42
2022-10-17T23:48:52.187Z,22.33
2022-10-17T23:51:20.303Z,21.27
2022-10-17T23:53:49.737Z,21.15
2022-10-17T23:56:17.800Z,19.98
2022-10-17T23:58:46.153Z,22.25
